Time;durP1;ratioP1;P1;durP2;ratioP2;P2;SDS_P1;SDS_P2;PMS_P1;PMS_P2;Temp;Humidity;BMP_temperature;BMP_pressure;BME280_temperature;BME280_humidity;BME280_pressure;Samples;Min_cycle;Max_cycle;Signal;HPM_P1;HPM_P2
2023/07/08 00:01:19;;;;;;;;;7.00;6.50;;;;;;;;5039171;28;45372;-72
2023/07/08 00:03:44;;;;;;;;;10.00;8.50;;;;;;;;5052016;28;45351;-72
2023/07/08 00:06:13;;;;;;;;;8.50;8.50;;;;;;;;5044055;28;45540;-72
2023/07/08 00:08:38;;;;;;;;;13.75;12.75;;;;;;;;5041900;28;45583;-72
2023/07/08 00:11:08;;;;;;;;;13.50;10.50;;;;;;;;5051117;28;45458;-72
2023/07/08 00:13:33;;;;;;;;;13.75;13.00;;;;;;;;5039019;28;45427;-72
2023/07/08 00:15:58;;;;;;;;;13.50;11.50;;;;;;;;5049843;28;45430;-72
2023/07/08 00:18:23;;;;;;;;;12.75;12.75;;;;;;;;5045631;28;46445;-72
2023/07/08 00:20:49;;;;;;;;;13.25;13.25;;;;;;;;5042869;28;45340;-72
2023/07/08 00:23:15;;;;;;;;;13.25;12.50;;;;;;;;5052304;28;45309;-72
2023/07/08 00:25:41;;;;;;;;;12.50;11.00;;;;;;;;5039388;28;45462;-72
2023/07/08 00:28:10;;;;;;;;;14.75;13.75;;;;;;;;5047149;28;47230;-72
2023/07/08 00:30:35;;;;;;;;;11.00;10.50;;;;;;;;5039108;28;45408;-72
2023/07/08 00:33:01;;;;;;;;;12.25;11.50;;;;;;;;5050760;28;45434;-72
2023/07/08 00:35:26;;;;;;;;;13.50;13.00;;;;;;;;5037626;28;45456;-72
2023/07/08 00:38:01;;;;;;;;;15.25;15.00;;;;;;;;5050206;28;47292;-72
2023/07/08 00:40:27;;;;;;;;;14.50;12.50;;;;;;;;5045656;28;45406;-73
2023/07/08 00:42:52;;;;;;;;;10.50;10.50;;;;;;;;5042133;28;45440;-72
2023/07/08 00:45:25;;;;;;;;;12.75;10.25;;;;;;;;5051618;28;45489;-72
2023/07/08 00:47:51;;;;;;;;;13.75;12.75;;;;;;;;5036040;28;45400;-72
2023/07/08 00:50:16;;;;;;;;;11.25;11.25;;;;;;;;5043839;28;45415;-72
2023/07/08 00:52:42;;;;;;;;;10.50;9.75;;;;;;;;5043482;28;45406;-72
2023/07/08 00:55:08;;;;;;;;;15.75;14.75;;;;;;;;5051219;28;45438;-72
2023/07/08 00:57:37;;;;;;;;;13.75;11.75;;;;;;;;5038506;28;47321;-72
2023/07/08 01:00:04;;;;;;;;;14.50;14.00;;;;;;;;5047980;28;45790;-72
2023/07/08 01:02:31;;;;;;;;;14.75;12.75;;;;;;;;5045840;28;45438;-72
2023/07/08 01:05:10;;;;;;;;;15.50;12.75;;;;;;;;5040885;28;45561;-72
2023/07/08 01:07:36;;;;;;;;;12.25;11.75;;;;;;;;5051363;28;46084;-73
2023/07/08 01:10:03;;;;;;;;;12.00;9.50;;;;;;;;5041483;28;45606;-72
2023/07/08 01:12:38;;;;;;;;;15.00;11.50;;;;;;;;5044996;28;45439;-72
2023/07/08 01:15:06;;;;;;;;;13.75;12.50;;;;;;;;5050336;28;45455;-72
2023/07/08 01:17:32;;;;;;;;;10.50;10.50;;;;;;;;5034764;28;47162;-72
2023/07/08 01:19:58;;;;;;;;;11.25;9.50;;;;;;;;5038797;28;45406;-72
2023/07/08 01:22:23;;;;;;;;;15.00;13.00;;;;;;;;5044111;28;45459;-72
2023/07/08 01:24:48;;;;;;;;;11.00;11.00;;;;;;;;5034000;28;45628;-72
2023/07/08 01:27:16;;;;;;;;;12.50;12.00;;;;;;;;5051285;28;46736;-73
2023/07/08 01:29:41;;;;;;;;;13.00;10.75;;;;;;;;5038099;28;45819;-72
2023/07/08 01:32:13;;;;;;;;;15.50;12.00;;;;;;;;5041978;28;45304;-73
2023/07/08 01:34:39;;;;;;;;;10.50;10.25;;;;;;;;5043230;28;45448;-72
2023/07/08 01:37:05;;;;;;;;;12.75;10.50;;;;;;;;5049820;28;46299;-72
2023/07/08 01:39:31;;;;;;;;;11.75;11.75;;;;;;;;5037563;28;45400;-72
2023/07/08 01:41:57;;;;;;;;;11.50;11.25;;;;;;;;5048976;28;45362;-72
2023/07/08 01:44:28;;;;;;;;;14.75;13.00;;;;;;;;5043680;28;45356;-72
2023/07/08 01:46:55;;;;;;;;;11.00;10.75;;;;;;;;5040883;28;45535;-72
2023/07/08 01:49:20;;;;;;;;;10.25;9.25;;;;;;;;5050867;28;45465;-72
2023/07/08 01:51:47;;;;;;;;;14.00;13.00;;;;;;;;5034637;28;45432;-72
2023/07/08 01:54:12;;;;;;;;;14.00;11.00;;;;;;;;5042587;28;45454;-72
2023/07/08 01:56:37;;;;;;;;;11.00;9.50;;;;;;;;5041246;28;46618;-72
2023/07/08 01:59:02;;;;;;;;;11.75;8.75;;;;;;;;5049307;28;45557;-73
2023/07/08 02:01:28;;;;;;;;;7.75;6.75;;;;;;;;5037827;28;45517;-72
2023/07/08 02:03:53;;;;;;;;;7.50;6.75;;;;;;;;5049275;28;45283;-72
2023/07/08 02:06:19;;;;;;;;;7.00;5.75;;;;;;;;5041968;28;46420;-72
2023/07/08 02:08:44;;;;;;;;;3.50;3.50;;;;;;;;5041774;28;45792;-72
2023/07/08 02:11:09;;;;;;;;;4.50;4.50;;;;;;;;5050509;28;45450;-73
2023/07/08 02:13:34;;;;;;;;;5.50;4.50;;;;;;;;5037353;28;45776;-73
2023/07/08 02:16:00;;;;;;;;;5.25;4.00;;;;;;;;5046246;28;45439;-72
2023/07/08 02:18:25;;;;;;;;;5.25;4.75;;;;;;;;5042777;28;45502;-72
2023/07/08 02:20:50;;;;;;;;;6.25;5.00;;;;;;;;5040792;28;45393;-73
2023/07/08 02:23:15;;;;;;;;;3.00;3.00;;;;;;;;5049433;28;45503;-72
2023/07/08 02:25:40;;;;;;;;;1.00;1.00;;;;;;;;5037824;28;45400;-72
2023/07/08 02:28:06;;;;;;;;;4.25;3.75;;;;;;;;5039289;28;45440;-72
2023/07/08 02:30:31;;;;;;;;;3.00;3.00;;;;;;;;5034653;28;45391;-72
2023/07/08 02:32:56;;;;;;;;;2.00;2.00;;;;;;;;5038170;28;45393;-71
2023/07/08 02:35:23;;;;;;;;;2.00;2.00;;;;;;;;5038064;28;45482;-71
2023/07/08 02:37:48;;;;;;;;;3.00;2.00;;;;;;;;5038277;28;45177;-70
2023/07/08 02:40:14;;;;;;;;;2.00;2.00;;;;;;;;5038116;28;45507;-71
2023/07/08 02:42:39;;;;;;;;;2.25;1.25;;;;;;;;5037878;28;45500;-71
2023/07/08 02:45:05;;;;;;;;;1.00;1.00;;;;;;;;5036631;28;47243;-70
2023/07/08 02:47:30;;;;;;;;;1.00;1.00;;;;;;;;5038179;28;45340;-71
2023/07/08 02:49:55;;;;;;;;;0.25;0.25;;;;;;;;5038132;28;45411;-71
2023/07/08 02:52:20;;;;;;;;;1.00;1.00;;;;;;;;5038123;28;45303;-71
2023/07/08 02:54:45;;;;;;;;;1.00;0.50;;;;;;;;5037713;28;46048;-71
2023/07/08 02:57:11;;;;;;;;;3.25;1.50;;;;;;;;5036589;28;45341;-71
2023/07/08 02:59:36;;;;;;;;;1.00;1.00;;;;;;;;5038051;28;45350;-71
2023/07/08 03:02:01;;;;;;;;;0.00;0.00;;;;;;;;5038237;28;45327;-71
2023/07/08 03:04:26;;;;;;;;;1.50;1.00;;;;;;;;5038527;28;45391;-71
2023/07/08 03:06:53;;;;;;;;;0.25;0.25;;;;;;;;5038304;28;45471;-71
2023/07/08 03:09:18;;;;;;;;;0.75;0.75;;;;;;;;5037875;28;45352;-70
2023/07/08 03:11:43;;;;;;;;;0.00;0.00;;;;;;;;5037324;28;45565;-72
2023/07/08 03:14:09;;;;;;;;;1.00;0.25;;;;;;;;5036036;28;45420;-71
2023/07/08 03:16:34;;;;;;;;;2.00;1.00;;;;;;;;5037764;28;45399;-71
2023/07/08 03:18:59;;;;;;;;;0.00;0.00;;;;;;;;5037929;28;45370;-71
2023/07/08 03:21:24;;;;;;;;;0.75;0.75;;;;;;;;5037506;28;45367;-72
2023/07/08 03:23:50;;;;;;;;;0.00;0.00;;;;;;;;5037267;28;46269;-71
2023/07/08 03:26:18;;;;;;;;;0.00;0.00;;;;;;;;5037064;28;45349;-72
2023/07/08 03:28:43;;;;;;;;;1.25;0.00;;;;;;;;5037310;28;45395;-72
2023/07/08 03:31:09;;;;;;;;;0.00;0.00;;;;;;;;5035987;28;45486;-71
2023/07/08 03:33:34;;;;;;;;;1.00;0.25;;;;;;;;5037215;28;47218;-71
2023/07/08 03:36:00;;;;;;;;;0.00;0.00;;;;;;;;5037156;28;45458;-72
2023/07/08 03:38:25;;;;;;;;;1.00;0.00;;;;;;;;5035765;28;45444;-72
2023/07/08 03:40:51;;;;;;;;;0.00;0.00;;;;;;;;5037057;28;45384;-72
2023/07/08 03:43:16;;;;;;;;;0.00;0.00;;;;;;;;5035702;28;45436;-72
2023/07/08 03:45:41;;;;;;;;;0.25;0.00;;;;;;;;5036958;28;45378;-72
2023/07/08 03:48:08;;;;;;;;;0.00;0.00;;;;;;;;5037132;28;45431;-72
2023/07/08 03:50:33;;;;;;;;;0.25;0.00;;;;;;;;5035701;28;45505;-72
2023/07/08 03:52:58;;;;;;;;;1.00;0.00;;;;;;;;5036531;28;45999;-71
2023/07/08 03:55:23;;;;;;;;;0.00;0.00;;;;;;;;5036623;28;45415;-71
2023/07/08 03:57:49;;;;;;;;;0.25;0.25;;;;;;;;5036991;28;45352;-72
2023/07/08 04:00:14;;;;;;;;;0.50;0.50;;;;;;;;5036795;28;45401;-72
2023/07/08 04:02:40;;;;;;;;;1.00;1.00;;;;;;;;5036560;28;45415;-72
2023/07/08 04:05:05;;;;;;;;;0.50;0.50;;;;;;;;5036906;28;45399;-72
2023/07/08 04:07:31;;;;;;;;;0.25;0.25;;;;;;;;5035454;28;45399;-72
2023/07/08 04:09:56;;;;;;;;;0.00;0.00;;;;;;;;5036848;28;45435;-72
2023/07/08 04:12:22;;;;;;;;;0.50;0.50;;;;;;;;5036635;28;45420;-72
2023/07/08 04:14:47;;;;;;;;;1.00;1.00;;;;;;;;5036530;28;45573;-72
2023/07/08 04:17:12;;;;;;;;;0.50;0.50;;;;;;;;5036880;28;45355;-72
2023/07/08 04:19:39;;;;;;;;;1.00;1.00;;;;;;;;5036651;28;45469;-72
2023/07/08 04:22:05;;;;;;;;;0.75;0.75;;;;;;;;5036148;28;46310;-71
2023/07/08 04:24:30;;;;;;;;;1.00;0.75;;;;;;;;5036055;28;45338;-72
2023/07/08 04:26:56;;;;;;;;;0.50;0.50;;;;;;;;5035146;28;45324;-72
2023/07/08 04:29:22;;;;;;;;;0.00;0.00;;;;;;;;5036416;28;45317;-72
2023/07/08 04:31:47;;;;;;;;;0.00;0.00;;;;;;;;5036239;28;47095;-72
2023/07/08 04:34:13;;;;;;;;;2.00;1.00;;;;;;;;5034667;28;45410;-72
2023/07/08 04:36:38;;;;;;;;;0.25;0.25;;;;;;;;5035950;28;45400;-72
2023/07/08 04:39:04;;;;;;;;;3.00;1.00;;;;;;;;5036452;28;45448;-72
2023/07/08 04:41:30;;;;;;;;;0.25;0.25;;;;;;;;5036172;28;45401;-72
2023/07/08 04:43:57;;;;;;;;;0.25;0.25;;;;;;;;5034534;28;45456;-72
2023/07/08 04:46:37;;;;;;;;;1.00;1.00;;;;;;;;5036272;28;45449;-72
2023/07/08 04:49:03;;;;;;;;;0.75;0.75;;;;;;;;5035975;28;45326;-72
2023/07/08 04:51:28;;;;;;;;;1.00;1.00;;;;;;;;5035676;28;47525;-72
2023/07/08 04:53:53;;;;;;;;;1.00;1.00;;;;;;;;5035502;28;45419;-71
2023/07/08 04:56:19;;;;;;;;;0.25;0.25;;;;;;;;5036122;28;45383;-72
2023/07/08 04:58:44;;;;;;;;;0.50;0.50;;;;;;;;5035840;28;45289;-71
2023/07/08 05:01:09;;;;;;;;;1.00;1.00;;;;;;;;5035425;28;47454;-72
2023/07/08 05:03:34;;;;;;;;;0.00;0.00;;;;;;;;5035836;28;45398;-71
2023/07/08 05:06:00;;;;;;;;;0.50;0.50;;;;;;;;5035717;28;45401;-72
2023/07/08 05:08:25;;;;;;;;;0.75;0.75;;;;;;;;5035756;28;45384;-71
2023/07/08 05:10:50;;;;;;;;;1.00;1.00;;;;;;;;5035565;28;46987;-71
2023/07/08 05:13:16;;;;;;;;;1.00;0.50;;;;;;;;5035635;28;45414;-72
2023/07/08 05:15:41;;;;;;;;;1.25;0.75;;;;;;;;5035606;28;45373;-72
2023/07/08 05:18:06;;;;;;;;;1.00;1.00;;;;;;;;5035689;28;45412;-72
2023/07/08 05:20:33;;;;;;;;;1.00;1.00;;;;;;;;5034011;28;48288;-72
2023/07/08 05:22:59;;;;;;;;;1.00;1.00;;;;;;;;5034360;28;46208;-72
2023/07/08 05:25:24;;;;;;;;;0.00;0.00;;;;;;;;5035432;28;45474;-72
2023/07/08 05:27:49;;;;;;;;;0.75;0.75;;;;;;;;5035636;28;45356;-72
2023/07/08 05:30:16;;;;;;;;;2.00;0.75;;;;;;;;5035359;28;47016;-72
2023/07/08 05:32:41;;;;;;;;;0.00;0.00;;;;;;;;5035504;28;45380;-72
2023/07/08 05:35:07;;;;;;;;;1.75;1.75;;;;;;;;5035205;28;45367;-73
2023/07/08 05:37:32;;;;;;;;;2.50;1.00;;;;;;;;5035642;28;45458;-73
2023/07/08 05:40:00;;;;;;;;;1.50;0.75;;;;;;;;5034078;28;45591;-73
2023/07/08 05:42:25;;;;;;;;;1.00;1.00;;;;;;;;5035327;28;45406;-73
2023/07/08 05:44:51;;;;;;;;;1.00;0.00;;;;;;;;5035069;28;45442;-73
2023/07/08 05:47:17;;;;;;;;;3.00;1.00;;;;;;;;5034017;28;45516;-72
2023/07/08 05:49:42;;;;;;;;;0.50;0.50;;;;;;;;5034710;28;45410;-73
2023/07/08 05:52:10;;;;;;;;;2.00;1.00;;;;;;;;5035207;28;45333;-73
2023/07/08 05:54:36;;;;;;;;;1.00;1.00;;;;;;;;5035124;28;45451;-73
2023/07/08 05:57:02;;;;;;;;;0.25;0.25;;;;;;;;5035041;28;45625;-73
2023/07/08 05:59:27;;;;;;;;;1.00;1.00;;;;;;;;5034690;28;46273;-74
2023/07/08 06:01:52;;;;;;;;;1.00;1.00;;;;;;;;5034853;28;45328;-74
2023/07/08 06:04:17;;;;;;;;;1.25;1.25;;;;;;;;5035095;28;45358;-74
2023/07/08 06:06:42;;;;;;;;;1.00;1.00;;;;;;;;5037080;28;45327;-74
2023/07/08 06:09:08;;;;;;;;;1.00;1.00;;;;;;;;5038691;28;45375;-74
2023/07/08 06:11:33;;;;;;;;;1.00;0.75;;;;;;;;5038206;28;45424;-74
2023/07/08 06:13:59;;;;;;;;;1.00;1.00;;;;;;;;5038544;28;45350;-74
2023/07/08 06:16:24;;;;;;;;;2.00;1.25;;;;;;;;5038798;28;45460;-75
2023/07/08 06:18:49;;;;;;;;;2.00;2.00;;;;;;;;5036798;28;45652;-74
2023/07/08 06:21:15;;;;;;;;;1.00;1.00;;;;;;;;5038209;28;45521;-74
2023/07/08 06:23:40;;;;;;;;;0.25;0.25;;;;;;;;5038604;28;45379;-72
2023/07/08 06:26:05;;;;;;;;;0.00;0.00;;;;;;;;5038479;28;45355;-72
2023/07/08 06:28:30;;;;;;;;;1.00;1.00;;;;;;;;5038247;28;46162;-73
2023/07/08 06:30:55;;;;;;;;;1.00;0.50;;;;;;;;5038170;28;45640;-73
2023/07/08 06:33:21;;;;;;;;;1.00;1.00;;;;;;;;5038158;28;45548;-72
2023/07/08 06:35:46;;;;;;;;;2.50;1.00;;;;;;;;5038008;28;45382;-72
2023/07/08 06:38:12;;;;;;;;;1.75;1.25;;;;;;;;5038084;28;45451;-72
2023/07/08 06:40:37;;;;;;;;;1.25;1.25;;;;;;;;5038251;28;45454;-72
2023/07/08 06:43:03;;;;;;;;;2.75;2.75;;;;;;;;5036965;28;45527;-73
2023/07/08 06:45:28;;;;;;;;;3.00;1.50;;;;;;;;5037887;28;45241;-72
2023/07/08 06:47:53;;;;;;;;;2.00;1.00;;;;;;;;5036385;28;48491;-72
2023/07/08 06:50:18;;;;;;;;;1.50;1.00;;;;;;;;5038181;28;45343;-71
2023/07/08 06:52:43;;;;;;;;;5.00;1.00;;;;;;;;5037944;28;45221;-72
2023/07/08 06:55:10;;;;;;;;;1.75;1.75;;;;;;;;5038376;28;45256;-72
2023/07/08 06:57:35;;;;;;;;;2.50;2.50;;;;;;;;5036916;28;47070;-74
2023/07/08 07:00:01;;;;;;;;;1.25;1.25;;;;;;;;5038307;28;45487;-74
2023/07/08 07:02:26;;;;;;;;;0.00;0.00;;;;;;;;5038328;28;45353;-75
2023/07/08 07:04:52;;;;;;;;;1.50;1.50;;;;;;;;5038443;28;45531;-74
2023/07/08 07:07:17;;;;;;;;;1.00;1.00;;;;;;;;5038336;28;47043;-74
2023/07/08 07:09:42;;;;;;;;;2.00;1.00;;;;;;;;5038090;28;45400;-74
2023/07/08 07:12:07;;;;;;;;;2.25;1.25;;;;;;;;5037261;28;45277;-73
2023/07/08 07:14:33;;;;;;;;;1.00;1.00;;;;;;;;5037532;28;45436;-74
2023/07/08 07:16:58;;;;;;;;;2.25;1.00;;;;;;;;5037444;28;47231;-74
2023/07/08 07:19:24;;;;;;;;;0.25;0.25;;;;;;;;5037414;28;45486;-74
2023/07/08 07:21:49;;;;;;;;;0.25;0.25;;;;;;;;5037682;28;45501;-74
2023/07/08 07:24:14;;;;;;;;;4.00;1.00;;;;;;;;5036238;28;45559;-74
2023/07/08 07:26:40;;;;;;;;;1.00;1.00;;;;;;;;5035785;28;47490;-74
2023/07/08 07:29:06;;;;;;;;;1.00;1.00;;;;;;;;5037173;28;45411;-74
2023/07/08 07:31:32;;;;;;;;;1.25;1.25;;;;;;;;5037209;28;45383;-74
2023/07/08 07:33:57;;;;;;;;;1.75;1.75;;;;;;;;5037421;28;45316;-74
2023/07/08 07:36:22;;;;;;;;;1.25;1.25;;;;;;;;5035753;28;47008;-74
2023/07/08 07:38:48;;;;;;;;;1.25;1.25;;;;;;;;5037189;28;45554;-75
2023/07/08 07:41:13;;;;;;;;;1.25;1.25;;;;;;;;5035656;28;45420;-73
2023/07/08 07:43:38;;;;;;;;;1.50;1.50;;;;;;;;5037274;28;45331;-75
2023/07/08 07:46:05;;;;;;;;;2.00;2.00;;;;;;;;5036509;28;47171;-74
2023/07/08 07:48:30;;;;;;;;;2.00;2.00;;;;;;;;5036889;28;45319;-74
2023/07/08 07:50:55;;;;;;;;;1.50;1.50;;;;;;;;5036972;28;45367;-75
2023/07/08 07:53:21;;;;;;;;;1.25;1.00;;;;;;;;5036914;28;45429;-74
2023/07/08 07:55:46;;;;;;;;;1.00;1.00;;;;;;;;5037154;28;46304;-74
2023/07/08 07:58:11;;;;;;;;;1.25;1.25;;;;;;;;5036879;28;45396;-74
2023/07/08 08:00:37;;;;;;;;;2.00;2.00;;;;;;;;5036721;28;45297;-74
2023/07/08 08:03:03;;;;;;;;;4.25;2.25;;;;;;;;5048600;28;44954;-74
2023/07/08 08:05:28;;;;;;;;;1.00;1.00;;;;;;;;5052483;28;28398;-75
2023/07/08 08:07:53;;;;;;;;;3.25;1.75;;;;;;;;5050290;28;44613;-75
2023/07/08 08:10:18;;;;;;;;;1.75;1.75;;;;;;;;5037066;28;45607;-74
2023/07/08 08:12:45;;;;;;;;;3.00;2.00;;;;;;;;5036390;28;45407;-74
2023/07/08 08:15:11;;;;;;;;;1.25;1.25;;;;;;;;5036470;28;47139;-75
2023/07/08 08:17:36;;;;;;;;;1.50;1.50;;;;;;;;5036676;28;45425;-74
2023/07/08 08:20:01;;;;;;;;;2.75;2.75;;;;;;;;5036581;28;45394;-74
2023/07/08 08:22:26;;;;;;;;;3.00;2.00;;;;;;;;5036872;28;45336;-74
2023/07/08 08:24:51;;;;;;;;;2.75;2.75;;;;;;;;5038487;28;46314;-75
2023/07/08 08:27:17;;;;;;;;;3.00;1.75;;;;;;;;5036117;28;45398;-74
2023/07/08 08:29:42;;;;;;;;;1.75;1.75;;;;;;;;5035926;28;45423;-74
2023/07/08 08:32:07;;;;;;;;;2.00;2.00;;;;;;;;5036450;28;45490;-74
2023/07/08 08:34:32;;;;;;;;;5.75;2.25;;;;;;;;5036076;28;47077;-74
2023/07/08 08:36:58;;;;;;;;;2.00;2.00;;;;;;;;5036325;28;45469;-74
2023/07/08 08:39:24;;;;;;;;;3.25;3.25;;;;;;;;5036296;28;45355;-74
2023/07/08 08:41:53;;;;;;;;;1.50;1.00;;;;;;;;5036353;28;45406;-73
2023/07/08 08:44:25;;;;;;;;;2.00;2.00;;;;;;;;5035635;28;45496;-73
2023/07/08 08:47:02;;;;;;;;;3.00;1.25;;;;;;;;5035888;28;45277;-73
2023/07/08 08:49:32;;;;;;;;;3.00;3.00;;;;;;;;5035929;28;45327;-74
2023/07/08 08:51:58;;;;;;;;;1.75;1.25;;;;;;;;5035900;28;45474;-74
2023/07/08 08:54:23;;;;;;;;;2.25;2.25;;;;;;;;5035998;28;45958;-73
2023/07/08 08:56:54;;;;;;;;;3.00;3.00;;;;;;;;5035600;28;45372;-74
2023/07/08 08:59:40;;;;;;;;;2.75;2.00;;;;;;;;5035704;28;45418;-73
2023/07/08 09:02:23;;;;;;;;;1.00;1.00;;;;;;;;5035289;28;45454;-74
2023/07/08 09:04:48;;;;;;;;;3.75;2.50;;;;;;;;5035794;28;45546;-73
2023/07/08 09:07:16;;;;;;;;;3.00;2.00;;;;;;;;5035883;28;45574;-74
2023/07/08 09:09:58;;;;;;;;;2.00;2.00;;;;;;;;5035709;28;45453;-74
2023/07/08 09:12:25;;;;;;;;;3.00;2.00;;;;;;;;5034294;28;45746;-74
2023/07/08 09:14:50;;;;;;;;;2.00;2.00;;;;;;;;5035385;28;45698;-74
2023/07/08 09:17:27;;;;;;;;;3.50;2.00;;;;;;;;5035768;28;45546;-74
2023/07/08 09:19:53;;;;;;;;;3.00;3.00;;;;;;;;5036313;28;45378;-73
2023/07/08 09:22:27;;;;;;;;;2.00;2.00;;;;;;;;5035444;28;45543;-74
2023/07/08 09:25:03;;;;;;;;;2.25;2.25;;;;;;;;5035297;28;46274;-74
2023/07/08 09:27:28;;;;;;;;;4.00;4.00;;;;;;;;5035183;28;45364;-74
2023/07/08 09:29:53;;;;;;;;;3.00;3.00;;;;;;;;5035280;28;45360;-75
2023/07/08 09:32:20;;;;;;;;;4.00;4.00;;;;;;;;5035582;28;45466;-74
2023/07/08 09:34:49;;;;;;;;;3.25;2.25;;;;;;;;5035125;28;47260;-75
2023/07/08 09:37:46;;;;;;;;;3.75;2.00;;;;;;;;5035443;28;45431;-74
2023/07/08 09:40:31;;;;;;;;;3.00;3.00;;;;;;;;4973010;28;45586;-73
2023/07/08 09:43:01;;;;;;;;;1.00;1.00;;;;;;;;4973299;28;45494;-74
2023/07/08 09:45:28;;;;;;;;;1.50;1.50;;;;;;;;4973543;28;46288;-74
2023/07/08 09:47:54;;;;;;;;;1.75;1.75;;;;;;;;4973628;28;45492;-74
2023/07/08 09:50:20;;;;;;;;;2.50;2.50;;;;;;;;4973826;28;45444;-74
2023/07/08 09:52:45;;;;;;;;;4.75;4.00;;;;;;;;4973832;28;45641;-74
2023/07/08 09:55:11;;;;;;;;;2.75;2.75;;;;;;;;4973341;28;45599;-75
2023/07/08 09:57:37;;;;;;;;;3.00;3.00;;;;;;;;4956662;28;46162;-74
2023/07/08 10:00:07;;;;;;;;;1.50;1.50;;;;;;;;4974257;28;45567;-74
2023/07/08 10:02:35;;;;;;;;;5.75;3.25;;;;;;;;4953297;28;45530;-74
2023/07/08 10:05:02;;;;;;;;;2.00;2.00;;;;;;;;4953913;28;45469;-73
2023/07/08 10:07:29;;;;;;;;;3.00;3.00;;;;;;;;4953886;28;45480;-74
2023/07/08 10:09:55;;;;;;;;;3.00;3.00;;;;;;;;4953877;28;45323;-75
2023/07/08 10:12:21;;;;;;;;;3.00;3.00;;;;;;;;4960801;28;45469;-74
2023/07/08 10:14:49;;;;;;;;;2.50;2.50;;;;;;;;4977791;28;45545;-74
2023/07/08 10:17:16;;;;;;;;;3.25;3.25;;;;;;;;5034961;28;45395;-74
2023/07/08 10:19:41;;;;;;;;;3.50;3.00;;;;;;;;5034991;28;45322;-75
2023/07/08 10:22:07;;;;;;;;;2.00;2.00;;;;;;;;5034772;28;45360;-74
2023/07/08 10:24:32;;;;;;;;;2.25;2.25;;;;;;;;5034682;28;46115;-75
2023/07/08 10:27:17;;;;;;;;;2.00;2.00;;;;;;;;5034570;28;45378;-75
2023/07/08 10:29:51;;;;;;;;;2.25;2.25;;;;;;;;5023862;28;45379;-75
2023/07/08 10:32:22;;;;;;;;;3.50;2.75;;;;;;;;5034742;28;45391;-74
2023/07/08 10:34:53;;;;;;;;;4.00;2.75;;;;;;;;5034380;28;45320;-74
2023/07/08 10:37:39;;;;;;;;;2.75;2.75;;;;;;;;5034624;28;45417;-74
2023/07/08 10:40:10;;;;;;;;;2.00;2.00;;;;;;;;5033845;28;45377;-75
2023/07/08 10:42:41;;;;;;;;;2.50;2.50;;;;;;;;5034529;28;45359;-74
2023/07/08 10:45:12;;;;;;;;;2.75;2.75;;;;;;;;5034408;28;46285;-73
2023/07/08 10:47:40;;;;;;;;;2.00;2.00;;;;;;;;5034529;28;45495;-74
2023/07/08 10:50:08;;;;;;;;;3.00;3.00;;;;;;;;5034573;28;45425;-73
2023/07/08 10:52:33;;;;;;;;;4.00;3.75;;;;;;;;5036051;28;45353;-73
2023/07/08 10:54:58;;;;;;;;;5.75;4.75;;;;;;;;5037483;28;46336;-74
2023/07/08 10:57:42;;;;;;;;;11.75;11.75;;;;;;;;5037981;28;45546;-73
2023/07/08 11:00:19;;;;;;;;;4.75;3.00;;;;;;;;5038032;28;45383;-74
2023/07/08 11:02:53;;;;;;;;;2.50;2.50;;;;;;;;5037506;28;45455;-74
2023/07/08 11:05:28;;;;;;;;;2.75;2.75;;;;;;;;5036536;28;46178;-73
2023/07/08 11:07:58;;;;;;;;;5.00;5.00;;;;;;;;5037395;28;45320;-74
2023/07/08 11:10:35;;;;;;;;;2.75;2.75;;;;;;;;5037971;28;45373;-73
2023/07/08 11:13:03;;;;;;;;;3.00;3.00;;;;;;;;5037678;28;45641;-74
2023/07/08 11:15:36;;;;;;;;;5.00;3.50;;;;;;;;5036320;28;48124;-74
2023/07/08 11:18:01;;;;;;;;;3.00;3.00;;;;;;;;5036594;28;45435;-74
2023/07/08 11:20:26;;;;;;;;;1.75;1.75;;;;;;;;5037819;28;45429;-74
2023/07/08 11:22:57;;;;;;;;;3.80;2.80;;;;;;;;5037636;28;45293;-74
2023/07/08 11:25:25;;;;;;;;;2.50;2.50;;;;;;;;5037752;28;45625;-73
2023/07/08 11:27:52;;;;;;;;;4.00;4.00;;;;;;;;5037959;28;45297;-73
2023/07/08 11:30:21;;;;;;;;;2.25;2.25;;;;;;;;5037883;28;45380;-74
2023/07/08 11:32:48;;;;;;;;;3.00;3.00;;;;;;;;5037412;28;45500;-74
2023/07/08 11:35:39;;;;;;;;;3.75;3.75;;;;;;;;5036856;28;47060;-74
2023/07/08 11:38:05;;;;;;;;;3.25;3.25;;;;;;;;5033840;28;45383;-74
2023/07/08 11:40:32;;;;;;;;;2.50;2.50;;;;;;;;5037170;28;45414;-74
2023/07/08 11:43:06;;;;;;;;;3.50;3.50;;;;;;;;5037344;28;45547;-74
2023/07/08 11:45:38;;;;;;;;;3.50;3.00;;;;;;;;5036846;28;45439;-74
2023/07/08 11:48:24;;;;;;;;;3.75;3.75;;;;;;;;5035418;28;45520;-74
2023/07/08 11:50:51;;;;;;;;;3.25;3.25;;;;;;;;5036838;28;45496;-74
2023/07/08 11:53:29;;;;;;;;;4.00;2.75;;;;;;;;5036779;28;45397;-73
2023/07/08 11:56:04;;;;;;;;;2.25;2.25;;;;;;;;5036777;28;46270;-73
2023/07/08 11:58:31;;;;;;;;;5.25;3.75;;;;;;;;5036781;28;45385;-74
2023/07/08 12:01:21;;;;;;;;;3.50;3.50;;;;;;;;5035324;28;45373;-74
2023/07/08 12:03:48;;;;;;;;;4.75;3.00;;;;;;;;5035974;28;45370;-73
2023/07/08 12:06:30;;;;;;;;;3.00;3.00;;;;;;;;5036483;28;45411;-74
2023/07/08 12:08:59;;;;;;;;;3.50;3.50;;;;;;;;5036695;28;45375;-73
2023/07/08 12:11:31;;;;;;;;;4.50;2.50;;;;;;;;5036353;28;45742;-74
2023/07/08 12:13:58;;;;;;;;;3.50;3.50;;;;;;;;5016743;28;45349;-73
2023/07/08 12:16:23;;;;;;;;;2.25;2.25;;;;;;;;5016739;28;46088;-73
2023/07/08 12:18:49;;;;;;;;;4.00;2.75;;;;;;;;5016355;28;45353;-74
2023/07/08 12:21:15;;;;;;;;;3.25;3.25;;;;;;;;5016739;28;45280;-73
2023/07/08 12:23:44;;;;;;;;;2.50;2.25;;;;;;;;5015591;28;45342;-74
2023/07/08 12:26:09;;;;;;;;;4.00;4.00;;;;;;;;5016471;28;45462;-73
2023/07/08 12:28:36;;;;;;;;;3.25;3.25;;;;;;;;5016445;28;45419;-74
2023/07/08 12:31:02;;;;;;;;;4.75;4.75;;;;;;;;5027845;28;45475;-74
2023/07/08 12:33:28;;;;;;;;;5.00;4.75;;;;;;;;5036289;28;45507;-73
2023/07/08 12:35:55;;;;;;;;;3.50;3.50;;;;;;;;5035971;28;46306;-73
2023/07/08 12:38:23;;;;;;;;;3.25;3.25;;;;;;;;5036282;28;45320;-74
2023/07/08 12:40:50;;;;;;;;;3.50;3.50;;;;;;;;5036328;28;45368;-73
2023/07/08 12:43:16;;;;;;;;;6.25;3.75;;;;;;;;5036281;28;45440;-74
2023/07/08 12:45:41;;;;;;;;;3.50;3.50;;;;;;;;5034835;28;48433;-74
2023/07/08 12:48:08;;;;;;;;;4.00;2.75;;;;;;;;5035798;28;45410;-74
2023/07/08 12:50:33;;;;;;;;;3.25;3.25;;;;;;;;5036227;28;45452;-74
2023/07/08 12:53:03;;;;;;;;;4.00;4.00;;;;;;;;5036116;28;45407;-73
2023/07/08 12:55:28;;;;;;;;;4.00;3.25;;;;;;;;5035870;28;46003;-74
2023/07/08 12:57:54;;;;;;;;;3.25;3.25;;;;;;;;5035898;28;45377;-74
2023/07/08 13:00:27;;;;;;;;;5.25;5.25;;;;;;;;5036051;28;45561;-73
2023/07/08 13:03:01;;;;;;;;;3.50;3.50;;;;;;;;5035759;28;45543;-74
2023/07/08 13:05:27;;;;;;;;;3.75;3.75;;;;;;;;5035669;28;46334;-74
2023/07/08 13:07:52;;;;;;;;;2.25;2.25;;;;;;;;5035895;28;45382;-73
2023/07/08 13:10:20;;;;;;;;;5.25;3.75;;;;;;;;5035980;28;45419;-74
2023/07/08 13:12:48;;;;;;;;;3.75;3.75;;;;;;;;5035405;28;45386;-74
2023/07/08 13:15:33;;;;;;;;;2.00;2.00;;;;;;;;5035622;28;47116;-74
2023/07/08 13:17:59;;;;;;;;;3.00;3.00;;;;;;;;5034846;28;45337;-74
2023/07/08 13:20:25;;;;;;;;;4.75;4.75;;;;;;;;5035236;28;45446;-75
2023/07/08 13:23:00;;;;;;;;;3.00;3.00;;;;;;;;5035739;28;45486;-75
2023/07/08 13:25:30;;;;;;;;;3.25;3.25;;;;;;;;5034046;28;47757;-74
2023/07/08 13:28:12;;;;;;;;;3.50;3.50;;;;;;;;5035294;28;45518;-74
2023/07/08 13:30:37;;;;;;;;;4.00;4.00;;;;;;;;5035486;28;45312;-74
2023/07/08 13:33:03;;;;;;;;;2.75;2.75;;;;;;;;5035397;28;45423;-74
2023/07/08 13:35:36;;;;;;;;;4.25;4.25;;;;;;;;5034981;28;46080;-74
2023/07/08 13:38:02;;;;;;;;;5.00;4.50;;;;;;;;5035563;28;45542;-74
2023/07/08 13:40:28;;;;;;;;;3.50;3.50;;;;;;;;5034173;28;45338;-74
2023/07/08 13:42:53;;;;;;;;;2.75;2.00;;;;;;;;5035363;28;45536;-74
2023/07/08 13:45:28;;;;;;;;;3.00;3.00;;;;;;;;5033821;28;48231;-74
2023/07/08 13:48:18;;;;;;;;;3.00;3.00;;;;;;;;5034826;28;45294;-73
2023/07/08 13:50:50;;;;;;;;;2.75;2.75;;;;;;;;5035396;28;45484;-74
2023/07/08 13:53:16;;;;;;;;;2.75;2.75;;;;;;;;5035268;28;45445;-73
2023/07/08 13:55:42;;;;;;;;;3.25;3.25;;;;;;;;5034762;28;47229;-74
2023/07/08 13:58:13;;;;;;;;;4.00;3.75;;;;;;;;5035078;28;45446;-74
2023/07/08 14:00:38;;;;;;;;;3.00;3.00;;;;;;;;5035343;28;45370;-74
2023/07/08 14:03:04;;;;;;;;;1.00;1.00;;;;;;;;5034865;28;45320;-74
2023/07/08 14:05:29;;;;;;;;;3.00;3.00;;;;;;;;5035047;28;45418;-74
2023/07/08 14:07:55;;;;;;;;;3.75;3.75;;;;;;;;5035180;28;45509;-74
2023/07/08 14:10:20;;;;;;;;;3.75;2.50;;;;;;;;5034928;28;45439;-74
2023/07/08 14:12:45;;;;;;;;;2.50;2.50;;;;;;;;5034757;28;45358;-74
2023/07/08 14:15:14;;;;;;;;;3.00;3.00;;;;;;;;5033655;28;47179;-73
2023/07/08 14:17:39;;;;;;;;;2.25;2.25;;;;;;;;5034732;28;45397;-74
2023/07/08 14:20:16;;;;;;;;;2.50;2.00;;;;;;;;5034795;28;45455;-73
2023/07/08 14:22:41;;;;;;;;;3.00;3.00;;;;;;;;5033631;28;45585;-74
2023/07/08 14:25:08;;;;;;;;;2.00;2.00;;;;;;;;5034656;28;45432;-73
2023/07/08 14:27:33;;;;;;;;;4.00;4.00;;;;;;;;5036276;28;45385;-74
2023/07/08 14:29:58;;;;;;;;;4.00;3.00;;;;;;;;5036631;28;45629;-74
2023/07/08 14:32:29;;;;;;;;;3.50;2.50;;;;;;;;5038234;28;45331;-74
2023/07/08 14:34:55;;;;;;;;;3.25;3.25;;;;;;;;5037871;28;47373;-73
2023/07/08 14:37:20;;;;;;;;;3.00;2.25;;;;;;;;5036877;28;45455;-72
2023/07/08 14:39:46;;;;;;;;;3.50;3.50;;;;;;;;5037909;28;45794;-73
2023/07/08 14:42:12;;;;;;;;;3.50;3.50;;;;;;;;5038089;28;45417;-73